Latest Weather Observations for Hobart Airport

IDT60901

Issued at 11:55 pm EST Thursday 24 April 2014 (issued every 10 minutes, with the page automatically refreshed every 10 minutes)

About weather observations | Map of Hobart area stations | Latest observations for Hobart area | Other Formats
Station Details ID: 094008 Name: HOBART AIRPORT Lat: -42.83 Lon: 147.50 Height: 4.0 m
Data from the previous 72 hours. | See also: Recent months at Hobart Airport
Date/Time
EST
Tmp

°C
App
Tmp
°C
Dew
Point
°C
Rel
Hum
%
Delta-T

°C
Wind Press
QNH
hPa
Press
MSL
hPa
Rain
since
9 am
mm
Dir
 
Spd
km/h
Gust
km/h
Spd
kts
Gust
kts
24/11:30pm 8.3 3.6 1.1 60 2.9 N 15 22 8 12 1017.8 - 0.4
24/11:00pm 8.1 2.7 1.2 62 2.8 N 19 30 10 16 1017.6 1017.6 0.4
24/10:30pm 8.4 1.6 1.0 59 3.0 NW 26 32 14 17 1017.5 - 0.4
24/10:00pm 8.9 2.1 1.0 57 3.2 NW 26 35 14 19 1017.4 1017.4 0.4
24/09:30pm 8.8 3.1 0.3 55 3.4 NW 20 26 11 14 1017.0 - 0.4
24/09:00pm 8.7 4.4 0.8 57 3.2 NNW 13 19 7 10 1016.5 1016.5 0.4
24/08:30pm 8.3 3.2 0.5 58 3.1 WNW 17 22 9 12 1015.9 - 0.4
24/08:00pm 9.3 3.4 -0.6 50 3.9 WNW 20 28 11 15 1015.6 1015.6 0.4
24/07:30pm 9.4 3.8 0.2 52 3.7 NNW 19 24 10 13 1015.1 - 0.4
24/07:00pm 7.4 3.9 1.2 65 2.5 N 9 11 5 6 1015.0 1015.0 0.4
24/06:30pm 9.1 2.8 -1.2 48 4.0 W 22 30 12 16 1013.8 - 0.4
24/06:00pm 9.6 3.7 -0.5 49 4.0 SW 20 26 11 14 1013.6 1013.6 0.4
24/05:30pm 9.0 5.5 1.2 58 3.2 S 9 15 5 8 1012.9 - 0.4
24/05:00pm 10.5 7.0 -1.2 44 4.6 N 7 19 4 10 1012.0 1012.0 0.4
24/04:30pm 10.9 6.6 0.7 49 4.2 WNW 13 19 7 10 1011.8 - 0.4
24/04:00pm 10.7 4.0 -1.2 43 4.7 SW 24 33 13 18 1011.0 1011.0 0.4
24/03:30pm 11.0 4.3 -1.1 43 4.8 WSW 24 32 13 17 1010.5 - 0.4
24/03:00pm 11.2 2.8 -2.2 39 5.2 WSW 32 46 17 25 1009.9 1009.9 0.4
24/02:53pm 11.9 3.9 -2.5 36 5.6 WSW 30 48 16 26 1009.8 - 0.4
24/02:30pm 11.5 6.4 1.0 48 4.4 SW 17 24 9 13 1009.6 - 0.4
24/02:00pm 10.8 5.0 0.0 47 4.4 W 20 50 11 27 1009.4 1009.4 0.4
24/01:30pm 10.5 4.3 2.0 55 3.6 WNW 24 33 13 18 1008.5 - 0.4
24/01:00pm 11.3 3.3 0.1 46 4.6 WNW 32 41 17 22 1008.3 1008.3 0.0
24/12:30pm 12.5 4.7 -0.8 40 5.4 WNW 30 44 16 24 1007.3 - 0.0
24/12:00pm 12.2 5.0 0.8 45 4.8 WNW 28 37 15 20 1007.1 1007.1 0.0
24/11:30am 11.5 4.4 1.3 49 4.3 WNW 28 39 15 21 1006.8 - 0.0
24/11:00am 10.9 4.1 1.1 51 4.1 W 26 35 14 19 1006.3 1006.3 0.0
24/10:30am 12.1 5.4 1.3 47 4.6 W 26 37 14 20 1005.7 - 0.0
24/10:00am 12.1 4.3 1.9 49 4.4 SW 32 46 17 25 1004.9 1004.9 0.0
24/09:30am 12.1 4.8 2.5 52 4.2 W 30 37 16 20 1004.1 - 0.0
24/09:00am 11.2 6.6 3.8 60 3.3 W 17 24 9 13 1003.7 1003.7 1.4
24/08:30am 10.9 7.3 5.0 67 2.7 WNW 13 17 7 9 1003.3 - 1.4
24/08:00am 10.0 6.3 4.7 69 2.4 WNW 13 19 7 10 1003.2 1003.2 1.4
24/07:30am 9.9 6.4 5.5 74 2.0 NNW 13 19 7 10 1002.2 - 1.4
24/07:00am 10.0 6.2 5.9 75 1.9 NW 15 19 8 10 1000.9 1000.8 1.4
24/06:30am 10.1 5.9 5.5 73 2.1 NNW 17 26 9 14 1000.7 - 1.4
24/05:30am 10.8 4.9 5.9 72 2.3 WNW 26 41 14 22 1001.4 - 1.4
24/05:00am 10.8 6.7 7.7 81 1.5 WNW 19 24 10 13 1000.8 1000.7 1.2
24/04:42am 11.6 4.7 7.3 75 2.1 W 33 52 18 28 1000.1 - 1.2
24/04:30am 12.7 7.8 8.5 75 2.1 NNW 24 33 13 18 999.7 - 0.6
24/04:23am 13.9 8.6 7.0 63 3.4 N 24 37 13 20 998.6 - 0.0
24/04:00am 14.6 9.8 4.8 52 4.6 N 19 26 10 14 998.2 998.1 0.0
24/03:30am 13.4 8.3 5.8 60 3.6 NNE 22 32 12 17 998.4 - 0.0
24/03:00am 13.5 8.0 5.7 59 3.7 N 24 33 13 18 999.2 999.1 0.0
24/02:30am 13.6 7.7 5.6 58 3.8 N 26 35 14 19 1000.2 - 0.0
24/02:00am 13.4 7.6 6.3 62 3.4 N 26 33 14 18 1001.2 1001.1 0.0
24/01:30am 12.6 8.1 6.8 68 2.8 N 20 32 11 17 1002.2 - 0.0
24/01:00am 12.2 7.8 7.3 72 2.4 NNW 20 32 11 17 1003.0 1003.0 0.0
24/12:30am 12.1 7.2 7.1 71 2.4 NNW 22 32 12 17 1003.5 - 0.0
24/12:00am 12.4 6.8 7.0 69 2.6 NNW 26 39 14 21 1003.7 1003.7 0.0
 
Date/Time
EST
Tmp

°C
App
Tmp
°C
Dew
Point
°C
Rel
Hum
%
Delta-T

°C
Wind Press
QNH
hPa
Press
MSL
hPa
Rain
since
9 am
mm
Dir
 
Spd
km/h
Gust
km/h
Spd
kts
Gust
kts
23/11:30pm 12.3 6.0 7.4 72 2.4 N 30 41 16 22 1004.0 - 0.0
23/11:00pm 12.7 8.2 6.9 68 2.8 N 20 35 11 19 1004.5 1004.5 0.0
23/10:30pm 11.0 8.0 7.7 80 1.6 N 13 19 7 10 1005.3 - 0.0
23/10:00pm 12.3 8.8 7.1 70 2.5 N 15 20 8 11 1006.0 1006.0 0.0
23/09:30pm 11.9 8.1 7.4 74 2.2 N 17 26 9 14 1006.5 - 0.0
23/09:00pm 10.9 7.4 7.1 77 1.8 N 15 22 8 12 1006.9 1006.9 0.0
23/08:30pm 12.6 9.5 7.3 70 2.6 NNW 13 17 7 9 1007.0 - 0.0
23/08:00pm 11.9 8.8 7.4 74 2.2 N 13 20 7 11 1007.3 1007.3 0.0
23/07:30pm 12.9 9.4 7.1 68 2.8 N 15 20 8 11 1007.5 - 0.0
23/07:00pm 13.5 10.1 5.9 60 3.6 N 13 17 7 9 1007.5 1007.5 0.0
23/06:30pm 14.2 10.6 5.0 54 4.3 N 13 15 7 8 1007.9 - 0.0
23/06:00pm 13.6 9.7 3.4 50 4.6 N 13 17 7 9 1008.1 1008.1 0.0
23/05:30pm 14.0 11.1 4.8 54 4.3 N 9 13 5 7 1008.0 - 0.0
23/05:00pm 16.1 11.2 2.3 39 6.2 NNW 17 24 9 13 1008.1 1008.1 0.0
23/04:30pm 16.6 12.9 4.3 44 5.8 N 13 15 7 8 1008.4 - 0.0
23/04:00pm 16.2 12.5 4.5 45 5.5 NNW 13 19 7 10 1008.7 1008.7 0.0
23/03:30pm 16.5 12.0 4.1 43 5.8 NW 17 20 9 11 1008.9 - 0.0
23/03:00pm 16.4 11.3 4.3 44 5.7 NW 20 26 11 14 1009.2 1009.2 0.0
23/02:30pm 16.7 12.0 2.9 39 6.3 NNW 17 30 9 16 1009.5 - 0.0
23/02:00pm 16.9 11.5 2.6 38 6.5 NW 20 30 11 16 1009.9 1009.9 0.0
23/01:30pm 17.0 10.6 3.1 39 6.4 NW 26 33 14 18 1010.3 - 0.0
23/01:00pm 17.3 11.4 2.0 35 6.9 NW 22 32 12 17 1010.6 1010.6 0.0
23/12:30pm 17.3 12.6 3.2 39 6.5 NNW 17 26 9 14 1011.1 - 0.0
23/12:00pm 16.6 11.9 3.1 40 6.2 NNW 17 26 9 14 1011.6 1011.6 0.0
23/11:30am 15.7 11.1 3.8 45 5.5 N 17 20 9 11 1012.1 - 0.0
23/11:00am 15.6 10.5 3.3 43 5.6 NW 19 24 10 13 1012.5 1012.5 0.0
23/10:30am 14.6 11.4 5.3 53 4.4 NNW 11 15 6 8 1012.8 - 0.0
23/10:00am 13.7 11.1 6.2 60 3.6 NNW 9 13 5 7 1013.4 1013.4 0.0
23/09:30am 12.4 9.7 5.5 63 3.2 NNW 9 13 5 7 1014.0 - 0.0
23/09:00am 11.6 8.3 6.3 70 2.5 NW 13 17 7 9 1014.3 1014.3 0.2
23/08:30am 10.4 7.9 6.6 77 1.8 NW 9 11 5 6 1014.4 - 0.2
23/08:00am 9.8 8.9 5.9 77 1.8 CALM 0 6 0 3 1014.3 1014.3 0.2
23/07:30am 7.5 5.7 5.5 87 0.9 NE 4 9 2 5 1014.2 - 0.2
23/07:00am 7.2 3.6 4.9 85 1.0 NW 13 15 7 8 1014.1 1014.1 0.2
23/06:30am 7.6 5.8 5.4 86 1.0 NNW 4 9 2 5 1013.9 - 0.2
23/06:00am 8.0 5.7 5.6 85 1.1 NNW 7 11 4 6 1014.1 1014.1 0.2
23/05:30am 7.7 4.6 5.7 87 0.9 NW 11 15 6 8 1014.1 - 0.2
23/05:00am 7.8 5.1 5.8 87 0.9 NW 9 13 5 7 1014.1 1014.1 0.2
23/04:30am 7.6 4.6 6.1 90 0.7 NNW 11 13 6 7 1013.9 - 0.2
23/04:00am 9.5 6.4 5.5 76 1.8 NNW 11 13 6 7 1013.8 1013.8 0.2
23/03:30am 9.4 6.0 5.7 78 1.7 NNW 13 17 7 9 1013.7 - 0.2
23/03:00am 10.2 6.7 5.4 72 2.2 N 13 17 7 9 1013.7 1013.7 0.2
23/02:30am 10.1 6.5 5.0 70 2.3 NNW 13 17 7 9 1013.8 - 0.2
23/02:00am 9.0 5.4 5.2 77 1.7 N 13 19 7 10 1013.9 1013.9 0.2
23/01:30am 10.0 6.5 5.4 73 2.1 N 13 15 7 8 1013.7 - 0.2
23/01:00am 10.9 7.4 5.5 69 2.5 N 13 15 7 8 1013.6 1013.6 0.2
23/12:30am 10.7 7.3 5.7 71 2.3 N 13 17 7 9 1013.6 - 0.2
23/12:00am 12.0 8.0 5.0 62 3.2 NNW 15 17 8 9 1013.7 1013.7 0.2
 
Date/Time
EST
Tmp

°C
App
Tmp
°C
Dew
Point
°C
Rel
Hum
%
Delta-T

°C
Wind Press
QNH
hPa
Press
MSL
hPa
Rain
since
9 am
mm
Dir
 
Spd
km/h
Gust
km/h
Spd
kts
Gust
kts
22/11:30pm 12.4 7.5 4.2 57 3.7 NW 19 26 10 14 1013.7 - 0.2
22/11:00pm 10.4 7.2 5.1 69 2.4 N 11 17 6 9 1013.5 1013.5 0.2
22/10:30pm 11.8 8.6 2.9 54 3.9 NNW 9 15 5 8 1013.4 - 0.2
22/10:00pm 13.1 5.7 1.7 46 4.9 W 30 39 16 21 1013.0 1013.0 0.2
22/09:30pm 13.0 6.8 2.2 48 4.7 WNW 24 32 13 17 1013.1 - 0.2
22/09:00pm 13.3 7.2 2.6 48 4.7 WNW 24 32 13 17 1012.7 1012.7 0.2
22/08:30pm 13.6 8.9 5.0 56 4.0 NW 19 28 10 15 1012.2 - 0.2
22/08:00pm 14.1 9.4 5.1 54 4.2 NW 19 26 10 14 1011.9 1011.9 0.2
22/07:30pm 13.7 9.1 3.5 50 4.6 NW 17 20 9 11 1011.6 - 0.2
22/07:00pm 14.1 10.4 4.6 52 4.4 NNW 13 20 7 11 1011.1 1011.1 0.2
22/06:30pm 14.8 9.0 2.1 42 5.6 NW 22 30 12 16 1010.6 - 0.2
22/06:00pm 14.8 9.2 1.5 40 5.8 WNW 20 32 11 17 1010.0 1010.0 0.2
22/05:30pm 15.0 8.7 1.5 40 5.9 NW 24 33 13 18 1009.6 - 0.2
22/05:04pm 15.5 7.9 0.7 36 6.4 WNW 30 48 16 26 1009.5 - 0.2
22/05:00pm 15.6 8.0 0.5 36 6.5 WNW 30 44 16 24 1009.4 1009.4 0.2
22/04:30pm 16.1 8.8 0.0 33 6.9 W 28 37 15 20 1009.0 - 0.2
22/04:00pm 16.6 9.8 0.5 33 7.0 W 26 35 14 19 1008.8 1008.8 0.2
22/03:30pm 17.2 9.1 0.8 33 7.2 WNW 33 43 18 23 1008.6 - 0.2
22/03:00pm 17.4 9.7 -0.2 30 7.6 W 30 41 16 22 1008.4 1008.4 0.2
22/02:30pm 17.5 9.1 1.7 34 7.1 NW 35 46 19 25 1008.1 - 0.2
22/02:00pm 17.9 10.2 3.3 37 6.8 W 33 46 18 25 1007.9 1007.9 0.2
22/01:30pm 18.3 10.5 3.0 36 7.1 W 33 46 18 25 1007.4 - 0.2
22/01:00pm 18.8 12.0 5.0 40 6.7 W 30 39 16 21 1007.0 1007.0 0.2
22/12:30pm 19.9 12.7 5.8 39 7.0 WNW 33 48 18 26 1006.7 - 0.0
22/12:00pm 19.9 14.3 7.2 43 6.5 WNW 26 39 14 21 1006.4 1006.4 0.0
22/11:30am 18.8 14.2 6.6 45 6.1 W 20 28 11 15 1006.3 - 0.0
22/11:00am 18.8 13.5 6.9 46 6.0 NW 24 35 13 19 1005.9 1005.9 0.0
22/10:30am 17.7 13.9 8.9 56 4.6 WNW 19 28 10 15 1005.6 - 0.0
22/10:00am 16.9 14.7 9.2 60 4.0 NW 11 15 6 8 1006.0 1006.0 0.0
22/09:30am 16.2 16.6 11.2 72 2.7 CALM 0 0 0 0 1005.7 - 0.0
22/09:00am 16.6 15.5 9.8 64 3.6 W 6 9 3 5 1005.4 1005.4 3.4
22/08:30am 14.2 13.3 10.8 80 1.8 SSW 6 9 3 5 1005.6 - 3.4
22/08:00am 13.6 11.7 10.6 82 1.6 NW 11 15 6 8 1005.2 1005.2 3.4
22/07:30am 14.1 11.8 9.0 71 2.6 WNW 11 15 6 8 1004.8 - 3.4
22/07:00am 11.7 9.8 8.9 83 1.4 WNW 9 15 5 8 1004.4 1004.4 3.4
22/06:30am 11.5 10.0 9.3 86 1.1 SW 7 13 4 7 1004.1 - 3.4
22/06:00am 12.1 10.6 9.3 83 1.4 NE 7 11 4 6 1004.0 1004.0 3.4
22/05:30am 12.4 11.0 9.5 82 1.5 NNW 7 11 4 6 1003.5 - 3.4
22/05:00am 12.1 10.3 9.3 83 1.4 N 9 11 5 6 1003.0 1003.0 3.4
22/04:30am 10.0 7.8 9.2 95 0.4 S 11 15 6 8 1003.0 - 3.4
22/04:00am 9.0 7.4 8.2 95 0.4 SSE 6 7 3 4 1002.6 1002.6 3.4
22/03:30am 11.0 10.5 9.4 90 0.8 SW 2 7 1 4 1002.8 - 3.4
22/03:00am 10.7 8.9 9.5 92 0.6 S 9 15 5 8 1003.1 1003.1 3.4
22/02:30am 12.6 11.4 9.7 82 1.5 SW 6 11 3 6 1003.4 - 3.4
22/02:00am 12.4 10.7 9.7 83 1.4 WNW 9 17 5 9 1003.6 1003.6 3.4
22/01:30am 12.5 8.9 10.0 85 1.3 N 19 30 10 16 1004.0 - 3.4
22/01:00am 13.3 9.2 10.2 81 1.6 N 22 32 12 17 1004.6 1004.6 3.4
22/12:30am 12.0 9.6 9.9 87 1.1 N 13 17 7 9 1005.4 - 3.4
22/12:00am 10.7 9.8 9.3 91 0.7 N 4 13 2 7 1006.3 1006.3 3.4

Latest Capital City Observations: Canberra | Sydney | Melbourne | Brisbane | Adelaide | Perth | Hobart | Darwin

Other Formats:

Comma delimited format used in spreadsheet applications
http://www.bom.gov.au/fwo/IDT60901/IDT60901.94975.axf

JavaScript Object Notation format (JSON) in row-major order
http://www.bom.gov.au/fwo/IDT60901/IDT60901.94975.json